createdAt,value
2022-11-08T00:02:04.009Z,11.13
2022-11-08T00:04:30.658Z,7.47
2022-11-08T00:07:15.669Z,10.75
2022-11-08T00:10:00.806Z,10.02
2022-11-08T00:12:45.451Z,9.10
2022-11-08T00:15:11.877Z,8.07
2022-11-08T00:17:38.356Z,11.98
2022-11-08T00:20:05.796Z,8.98
2022-11-08T00:22:32.287Z,12.07
2022-11-08T00:24:58.777Z,11.93
2022-11-08T00:27:25.412Z,11.30
2022-11-08T00:29:52.026Z,14.20
2022-11-08T00:32:21.400Z,12.98
2022-11-08T00:34:48.717Z,12.48
2022-11-08T00:37:16.088Z,19.98
2022-11-08T00:39:42.609Z,10.95
2022-11-08T00:42:09.166Z,13.18
2022-11-08T00:44:35.883Z,9.63
2022-11-08T00:47:02.439Z,11.05
2022-11-08T00:49:29.209Z,9.10
2022-11-08T00:51:55.744Z,10.98
2022-11-08T00:54:22.294Z,8.48
2022-11-08T00:56:49.536Z,11.23
2022-11-08T00:59:17.855Z,14.23
2022-11-08T01:01:45.249Z,12.27
2022-11-08T01:04:13.867Z,6.72
2022-11-08T01:06:40.938Z,13.82
2022-11-08T01:09:07.992Z,11.50
2022-11-08T01:11:34.507Z,8.07
2022-11-08T01:14:01.333Z,16.60
2022-11-08T01:16:31.750Z,11.32
2022-11-08T01:18:59.420Z,12.98
2022-11-08T01:21:27.141Z,8.30
2022-11-08T01:23:54.489Z,13.32
2022-11-08T01:26:24.785Z,15.73
2022-11-08T01:28:51.196Z,6.53
2022-11-08T01:31:20.009Z,8.23
2022-11-08T01:33:51.003Z,6.78
2022-11-08T01:38:45.751Z,11.10
2022-11-08T01:41:14.192Z,13.50
2022-11-08T01:43:42.004Z,12.23
2022-11-08T01:46:11.385Z,12.05
2022-11-08T01:48:41.748Z,11.80
2022-11-08T01:51:12.461Z,11.27
2022-11-08T01:53:39.318Z,10.67
2022-11-08T01:56:07.397Z,12.52
2022-11-08T01:58:37.114Z,11.35
2022-11-08T02:01:03.869Z,9.02
2022-11-08T02:03:34.598Z,15.68
2022-11-08T02:09:44.629Z,9.93
2022-11-08T02:12:12.802Z,12.07
2022-11-08T02:14:39.448Z,11.63
2022-11-08T02:17:07.368Z,11.32
2022-11-08T02:19:40.806Z,10.65
2022-11-08T02:22:25.714Z,12.77
2022-11-08T02:24:52.300Z,7.75
2022-11-08T02:27:18.853Z,11.35
2022-11-08T02:29:45.422Z,15.40
2022-11-08T02:32:12.563Z,6.45
2022-11-08T02:34:44.063Z,10.57
2022-11-08T02:37:13.263Z,9.45
2022-11-08T02:39:39.754Z,8.95
2022-11-08T02:42:06.276Z,14.07
2022-11-08T02:44:32.717Z,13.40
2022-11-08T02:46:59.227Z,19.48
2022-11-08T02:49:25.781Z,11.07
2022-11-08T02:51:53.876Z,10.60
2022-11-08T02:54:20.633Z,7.65
2022-11-08T02:56:47.147Z,11.50
2022-11-08T02:59:14.018Z,11.80
2022-11-08T03:01:40.783Z,17.05
2022-11-08T03:04:07.683Z,9.85
2022-11-08T03:06:34.134Z,9.32
2022-11-08T03:09:00.667Z,14.40
2022-11-08T03:11:27.764Z,14.13
2022-11-08T03:13:54.152Z,13.38
2022-11-08T03:16:20.581Z,11.75
2022-11-08T03:18:47.012Z,10.02
2022-11-08T03:21:13.517Z,12.48
2022-11-08T03:23:40.040Z,8.95
2022-11-08T03:26:06.674Z,14.70
2022-11-08T03:28:33.665Z,9.25
2022-11-08T03:31:00.069Z,11.88
2022-11-08T03:33:26.552Z,10.52
2022-11-08T03:35:53.389Z,11.23
2022-11-08T03:38:20.524Z,8.88
2022-11-08T03:40:47.631Z,12.57
2022-11-08T03:43:14.346Z,10.85
2022-11-08T03:45:40.759Z,18.60
2022-11-08T03:48:07.209Z,11.43
2022-11-08T03:50:33.711Z,10.60
2022-11-08T03:53:00.156Z,17.90
2022-11-08T03:55:28.006Z,13.25
2022-11-08T03:57:55.163Z,14.20
2022-11-08T04:00:26.919Z,10.55
2022-11-08T04:02:55.269Z,16.15
2022-11-08T04:05:21.726Z,15.38
2022-11-08T04:07:48.116Z,11.52
2022-11-08T04:10:14.629Z,9.52
2022-11-08T04:13:02.403Z,14.45
2022-11-08T04:15:30.453Z,12.43
2022-11-08T04:18:15.631Z,11.32
2022-11-08T04:21:03.424Z,7.53
2022-11-08T04:23:31.423Z,13.73
2022-11-08T04:26:04.765Z,12.98
2022-11-08T04:28:33.374Z,14.85
2022-11-08T04:31:02.976Z,11.93
2022-11-08T04:33:29.841Z,10.13
2022-11-08T04:36:01.887Z,12.98
2022-11-08T04:38:28.601Z,11.50
2022-11-08T04:41:02.766Z,12.30
2022-11-08T04:43:29.948Z,10.65
2022-11-08T04:46:04.915Z,9.52
2022-11-08T04:48:32.135Z,10.77
2022-11-08T04:51:07.146Z,15.13
2022-11-08T04:53:33.585Z,13.30
2022-11-08T04:56:05.151Z,17.98
2022-11-08T04:58:36.673Z,15.80
2022-11-08T05:01:04.556Z,16.80
2022-11-08T05:03:31.615Z,10.93
2022-11-08T05:06:04.210Z,7.65
2022-11-08T05:08:30.931Z,11.82
2022-11-08T05:11:09.627Z,11.50
2022-11-08T05:13:36.830Z,10.70
2022-11-08T05:16:06.370Z,18.15
2022-11-08T05:18:34.167Z,18.05
2022-11-08T05:21:20.371Z,12.25
2022-11-08T05:23:48.283Z,16.80
2022-11-08T05:26:15.392Z,18.23
2022-11-08T05:28:41.929Z,21.13
2022-11-08T05:31:09.268Z,19.92
2022-11-08T05:33:35.745Z,16.77
2022-11-08T05:36:06.101Z,13.65
2022-11-08T05:38:33.253Z,15.35
2022-11-08T05:41:15.751Z,15.75
2022-11-08T05:43:43.136Z,14.13
2022-11-08T05:46:09.601Z,15.13
2022-11-08T05:48:36.238Z,22.15
2022-11-08T05:51:02.876Z,13.32
2022-11-08T05:53:29.419Z,17.17
2022-11-08T05:56:00.421Z,15.65
2022-11-08T05:58:27.811Z,12.85
2022-11-08T06:01:06.170Z,13.80
2022-11-08T06:03:33.470Z,20.13
2022-11-08T06:06:04.727Z,20.13
2022-11-08T06:08:31.511Z,14.82
2022-11-08T06:11:12.229Z,18.67
2022-11-08T06:13:39.352Z,15.10
2022-11-08T06:16:08.484Z,18.27
2022-11-08T06:18:35.758Z,20.17
2022-11-08T06:21:03.576Z,15.40
2022-11-08T06:23:30.361Z,14.23
2022-11-08T06:25:57.441Z,19.42
2022-11-08T06:28:24.179Z,14.48
2022-11-08T06:30:51.296Z,21.00
2022-11-08T06:33:18.514Z,14.32
2022-11-08T06:35:45.129Z,13.30
2022-11-08T06:38:11.624Z,20.05
2022-11-08T06:40:38.805Z,17.95
2022-11-08T06:43:05.685Z,16.05
2022-11-08T06:45:32.201Z,15.75
2022-11-08T06:48:00.415Z,20.45
2022-11-08T06:50:27.354Z,11.35
2022-11-08T06:52:57.586Z,20.20
2022-11-08T06:55:24.315Z,22.73
2022-11-08T06:57:51.091Z,17.08
2022-11-08T07:00:17.779Z,17.50
2022-11-08T07:02:44.452Z,18.25
2022-11-08T07:05:12.041Z,16.58
2022-11-08T07:07:38.811Z,18.77
2022-11-08T07:10:06.094Z,15.48
2022-11-08T07:12:32.757Z,15.13
2022-11-08T07:14:59.176Z,25.35
2022-11-08T07:17:25.620Z,15.45
2022-11-08T07:19:51.998Z,17.48
2022-11-08T07:22:18.412Z,15.30
2022-11-08T07:24:44.843Z,19.67
2022-11-08T07:27:11.234Z,15.25
2022-11-08T07:29:37.630Z,11.98
2022-11-08T07:32:04.381Z,20.35
2022-11-08T07:34:31.577Z,24.80
2022-11-08T07:36:58.045Z,20.98
2022-11-08T07:39:24.475Z,21.95
2022-11-08T07:41:50.857Z,15.77
2022-11-08T07:44:17.222Z,13.10
2022-11-08T07:46:43.654Z,14.73
2022-11-08T07:49:10.296Z,17.75
2022-11-08T07:51:36.737Z,25.23
2022-11-08T07:54:03.480Z,28.88
2022-11-08T07:56:30.632Z,16.02
2022-11-08T07:58:57.048Z,15.02
2022-11-08T08:01:23.466Z,17.63
2022-11-08T08:03:49.951Z,22.90
2022-11-08T08:06:16.367Z,21.48
2022-11-08T08:08:42.838Z,24.17
2022-11-08T08:11:09.534Z,18.38
2022-11-08T08:13:36.017Z,13.88
2022-11-08T08:16:02.960Z,13.63
2022-11-08T08:18:30.172Z,18.27
2022-11-08T08:20:57.142Z,21.55
2022-11-08T08:23:23.608Z,24.00
2022-11-08T08:25:50.094Z,19.02
2022-11-08T08:28:16.593Z,16.38
2022-11-08T08:30:43.026Z,11.82
2022-11-08T08:33:29.981Z,11.43
2022-11-08T08:35:56.712Z,10.93
2022-11-08T08:38:23.160Z,13.30
2022-11-08T08:40:50.577Z,15.60
2022-11-08T08:43:17.448Z,11.50
2022-11-08T08:45:44.155Z,15.63
2022-11-08T08:48:10.593Z,14.77
2022-11-08T08:50:37.328Z,12.20
2022-11-08T08:53:05.699Z,15.48
2022-11-08T08:55:35.148Z,10.15
2022-11-08T08:58:01.608Z,13.70
2022-11-08T09:03:15.021Z,10.75
2022-11-08T09:05:43.868Z,22.02
2022-11-08T09:08:11.269Z,14.68
2022-11-08T09:10:38.072Z,14.65
2022-11-08T09:13:05.227Z,10.90
2022-11-08T09:15:32.057Z,12.38
2022-11-08T09:17:59.793Z,11.00
2022-11-08T09:20:26.789Z,15.48
2022-11-08T09:22:53.202Z,9.63
2022-11-08T09:25:19.624Z,10.40
2022-11-08T09:27:46.061Z,10.80
2022-11-08T09:30:12.575Z,10.38
2022-11-08T09:32:59.773Z,9.45
2022-11-08T09:35:25.551Z,15.55
2022-11-08T09:37:55.588Z,19.73
2022-11-08T09:40:31.340Z,9.23
2022-11-08T09:43:14.486Z,8.35
2022-11-08T09:45:45.486Z,10.73
2022-11-08T09:48:28.020Z,11.05
2022-11-08T09:50:57.319Z,28.40
2022-11-08T09:53:35.694Z,19.48
2022-11-08T09:56:16.559Z,10.93
2022-11-08T09:58:50.684Z,10.17
2022-11-08T10:01:17.244Z,8.15
2022-11-08T10:03:48.114Z,9.15
2022-11-08T10:06:26.496Z,5.43
2022-11-08T10:09:10.916Z,7.72
2022-11-08T10:12:06.814Z,11.77
2022-11-08T10:14:54.098Z,9.98
2022-11-08T10:17:39.866Z,13.70
2022-11-08T10:20:35.650Z,5.93
2022-11-08T10:23:23.968Z,8.90
2022-11-08T10:25:58.883Z,21.27
2022-11-08T10:28:36.074Z,8.90
2022-11-08T10:31:03.389Z,6.18
2022-11-08T10:33:37.717Z,11.85
2022-11-08T10:36:11.468Z,13.25
2022-11-08T10:38:49.936Z,8.23
2022-11-08T10:41:20.744Z,11.63
2022-11-08T10:43:53.591Z,15.70
2022-11-08T10:46:46.241Z,12.60
2022-11-08T10:49:17.023Z,9.60
2022-11-08T10:51:45.208Z,3.80
2022-11-08T10:54:43.652Z,6.50
2022-11-08T10:57:12.556Z,10.18
2022-11-08T10:59:39.600Z,8.38
2022-11-08T11:02:20.698Z,11.30
2022-11-08T11:04:47.389Z,11.45
2022-11-08T11:07:34.074Z,13.73
2022-11-08T11:10:35.285Z,12.00
2022-11-08T11:15:58.400Z,11.38
2022-11-08T11:18:38.087Z,14.50
2022-11-08T11:21:09.688Z,14.65
2022-11-08T11:26:07.756Z,12.73
2022-11-08T11:28:36.075Z,12.25
2022-11-08T11:31:15.132Z,11.20
2022-11-08T11:33:48.676Z,12.55
2022-11-08T11:36:21.983Z,8.98
2022-11-08T11:39:03.789Z,10.23
2022-11-08T11:44:10.969Z,10.52
2022-11-08T11:46:54.432Z,11.43
2022-11-08T11:49:21.762Z,6.25
2022-11-08T11:51:52.554Z,8.82
2022-11-08T11:54:18.996Z,11.15
2022-11-08T11:56:55.188Z,8.95
2022-11-08T11:59:40.265Z,12.32
2022-11-08T12:02:44.184Z,9.05
2022-11-08T12:05:25.915Z,13.52
2022-11-08T12:10:21.518Z,8.40
2022-11-08T12:13:09.432Z,8.43
2022-11-08T12:15:41.616Z,7.95
2022-11-08T12:18:42.885Z,8.70
2022-11-08T12:23:40.026Z,8.45
2022-11-08T12:27:01.596Z,4.43
2022-11-08T12:29:42.989Z,5.00
2022-11-08T12:32:50.765Z,9.05
2022-11-08T12:35:44.828Z,6.40
2022-11-08T12:38:20.285Z,9.93
2022-11-08T12:41:23.398Z,14.05
2022-11-08T12:44:11.346Z,6.43
2022-11-08T12:46:54.370Z,6.82
2022-11-08T12:49:29.189Z,5.60
2022-11-08T12:52:22.763Z,5.97
2022-11-08T12:54:58.330Z,6.93
2022-11-08T12:57:28.296Z,10.00
2022-11-08T13:00:06.720Z,8.23
2022-11-08T13:02:37.604Z,9.55
2022-11-08T13:05:38.910Z,4.57
2022-11-08T13:08:26.680Z,4.88
2022-11-08T13:11:16.734Z,7.32
2022-11-08T13:13:51.716Z,6.75
2022-11-08T13:16:24.808Z,5.80
2022-11-08T13:18:56.635Z,3.10
2022-11-08T13:21:25.982Z,6.72
2022-11-08T13:24:42.916Z,7.53
2022-11-08T13:27:23.539Z,6.45
2022-11-08T13:29:51.947Z,7.78
2022-11-08T13:32:27.903Z,6.55
2022-11-08T13:35:12.315Z,10.27
2022-11-08T13:38:03.492Z,8.52
2022-11-08T13:40:55.868Z,7.65
2022-11-08T13:43:32.210Z,8.93
2022-11-08T13:46:22.676Z,8.32
2022-11-08T13:48:58.396Z,4.95
2022-11-08T13:51:30.067Z,7.40
2022-11-08T13:56:45.224Z,8.68
2022-11-08T13:59:32.104Z,15.10
2022-11-08T14:01:59.331Z,3.13
2022-11-08T14:04:38.449Z,5.95
2022-11-08T14:07:13.977Z,10.35
2022-11-08T14:09:43.656Z,9.98
2022-11-08T14:12:22.479Z,10.30
2022-11-08T14:14:51.833Z,10.32
2022-11-08T14:17:52.254Z,6.93
2022-11-08T14:20:32.895Z,17.92
2022-11-08T14:23:12.407Z,8.75
2022-11-08T14:25:39.706Z,10.40
2022-11-08T14:28:31.169Z,7.97
2022-11-08T14:30:59.392Z,5.68
2022-11-08T14:33:28.105Z,6.38
2022-11-08T14:36:05.077Z,13.05
2022-11-08T14:38:36.374Z,14.45
2022-11-08T14:41:05.990Z,9.10
2022-11-08T14:43:43.514Z,10.95
2022-11-08T14:46:17.903Z,8.95
2022-11-08T14:48:55.166Z,7.30
2022-11-08T14:51:21.724Z,6.78
2022-11-08T14:53:50.581Z,6.93
2022-11-08T14:56:28.765Z,7.32
2022-11-08T14:58:55.949Z,7.60
2022-11-08T15:01:25.653Z,7.18
2022-11-08T15:03:58.785Z,10.27
2022-11-08T15:06:39.451Z,12.63
2022-11-08T15:09:07.252Z,8.75
2022-11-08T15:11:37.323Z,8.38
2022-11-08T15:14:09.655Z,6.80
2022-11-08T15:16:45.108Z,7.50
2022-11-08T15:19:25.680Z,9.90
2022-11-08T15:21:52.442Z,8.68
2022-11-08T15:24:29.185Z,5.00
2022-11-08T15:27:16.626Z,8.65
2022-11-08T15:30:03.789Z,9.05
2022-11-08T15:32:36.293Z,8.20
2022-11-08T15:35:03.686Z,9.18
2022-11-08T15:37:39.864Z,11.23
2022-11-08T15:40:18.680Z,7.03
2022-11-08T15:42:51.074Z,7.05
2022-11-08T15:45:17.423Z,12.10
2022-11-08T15:47:46.237Z,8.95
2022-11-08T15:50:24.890Z,9.52
2022-11-08T15:52:53.994Z,4.95
2022-11-08T15:55:27.800Z,12.05
2022-11-08T15:57:54.529Z,9.48
2022-11-08T16:00:24.184Z,7.47
2022-11-08T16:02:52.095Z,10.27
2022-11-08T16:05:26.945Z,8.82
2022-11-08T16:07:54.214Z,6.63
2022-11-08T16:10:30.164Z,8.07
2022-11-08T16:12:59.410Z,8.35
2022-11-08T16:15:27.602Z,8.20
2022-11-08T16:17:54.023Z,8.02
2022-11-08T16:20:25.419Z,8.30
2022-11-08T16:22:51.857Z,6.97
2022-11-08T16:25:18.343Z,8.57
2022-11-08T16:27:46.929Z,9.32
2022-11-08T16:30:15.465Z,8.15
2022-11-08T16:32:42.711Z,5.85
2022-11-08T16:35:12.485Z,7.00
2022-11-08T16:37:39.614Z,9.25
2022-11-08T16:40:14.452Z,12.82
2022-11-08T16:42:40.827Z,11.07
2022-11-08T16:45:07.819Z,14.20
2022-11-08T16:47:35.027Z,11.13
2022-11-08T16:50:01.684Z,11.57
2022-11-08T16:52:28.100Z,15.00
2022-11-08T16:54:54.511Z,6.22
2022-11-08T16:57:34.152Z,12.52
2022-11-08T17:00:01.430Z,13.73
2022-11-08T17:02:30.620Z,7.10
2022-11-08T17:04:57.081Z,7.65
2022-11-08T17:07:25.826Z,8.60
2022-11-08T17:09:52.471Z,6.90
2022-11-08T17:12:19.059Z,12.85
2022-11-08T17:14:45.511Z,5.93
2022-11-08T17:17:13.696Z,10.70
2022-11-08T17:19:40.213Z,13.02
2022-11-08T17:22:06.661Z,9.02
2022-11-08T17:24:33.089Z,10.15
2022-11-08T17:26:59.486Z,9.93
2022-11-08T17:29:25.971Z,10.52
2022-11-08T17:31:52.964Z,6.00
2022-11-08T17:34:19.488Z,6.65
2022-11-08T17:36:46.203Z,9.77
2022-11-08T17:39:15.959Z,14.27
2022-11-08T17:41:42.359Z,10.18
2022-11-08T17:44:08.785Z,15.63
2022-11-08T17:46:35.221Z,7.88
2022-11-08T17:49:01.735Z,7.93
2022-11-08T17:51:28.288Z,9.43
2022-11-08T17:53:54.667Z,7.93
2022-11-08T17:56:21.091Z,7.40
2022-11-08T17:58:47.550Z,22.50
2022-11-08T18:01:16.053Z,5.13
2022-11-08T18:03:42.704Z,6.22
2022-11-08T18:06:11.889Z,6.30
2022-11-08T18:08:38.522Z,6.53
2022-11-08T18:11:05.405Z,9.55
2022-11-08T18:13:32.523Z,6.10
2022-11-08T18:16:06.824Z,7.93
2022-11-08T18:18:33.262Z,6.55
2022-11-08T18:20:59.820Z,9.80
2022-11-08T18:23:26.320Z,7.18
2022-11-08T18:25:53.361Z,8.48
2022-11-08T18:28:19.825Z,9.57
2022-11-08T18:30:47.976Z,13.60
2022-11-08T18:33:15.164Z,8.15
2022-11-08T18:35:41.579Z,13.80
2022-11-08T18:38:08.088Z,7.70
2022-11-08T18:40:34.891Z,8.38
2022-11-08T18:43:01.352Z,9.48
2022-11-08T18:45:27.799Z,4.38
2022-11-08T18:47:54.347Z,8.20
2022-11-08T18:50:20.775Z,9.68
2022-11-08T18:52:48.184Z,8.27
2022-11-08T18:55:16.005Z,5.70
2022-11-08T18:57:42.508Z,8.02
2022-11-08T19:00:10.031Z,5.35
2022-11-08T19:02:36.535Z,9.18
2022-11-08T19:05:03.060Z,10.80
2022-11-08T19:07:29.515Z,4.88
2022-11-08T19:09:56.002Z,6.68
2022-11-08T19:12:22.498Z,8.48
2022-11-08T19:14:48.945Z,5.07
2022-11-08T19:17:16.238Z,5.90
2022-11-08T19:19:44.080Z,3.88
2022-11-08T19:22:10.801Z,6.63
2022-11-08T19:24:37.273Z,6.43
2022-11-08T19:27:03.867Z,7.82
2022-11-08T19:29:30.405Z,4.63
2022-11-08T19:31:56.874Z,7.53
2022-11-08T19:34:23.398Z,7.65
2022-11-08T19:36:55.836Z,8.90
2022-11-08T19:39:24.112Z,6.40
2022-11-08T19:41:50.648Z,7.10
2022-11-08T19:44:17.178Z,8.20
2022-11-08T19:46:43.983Z,8.10
2022-11-08T19:49:10.786Z,6.00
2022-11-08T19:51:37.256Z,6.10
2022-11-08T19:54:06.178Z,3.60
2022-11-08T19:57:02.353Z,7.95
2022-11-08T19:59:20.056Z,4.65
2022-11-08T20:01:46.955Z,4.75
2022-11-08T20:04:14.744Z,6.13
2022-11-08T20:06:41.817Z,4.32
2022-11-08T20:09:09.364Z,7.05
2022-11-08T20:11:37.929Z,7.25
2022-11-08T20:14:05.020Z,8.82
2022-11-08T20:16:39.461Z,7.38
2022-11-08T20:19:09.463Z,8.55
2022-11-08T20:21:38.783Z,5.03
2022-11-08T20:24:05.616Z,4.20
2022-11-08T20:26:34.652Z,6.10
2022-11-08T20:29:01.069Z,6.18
2022-11-08T20:31:28.507Z,5.97
2022-11-08T20:33:55.263Z,7.40
2022-11-08T20:36:24.111Z,6.78
2022-11-08T20:38:54.848Z,4.03
2022-11-08T20:41:21.271Z,5.27
2022-11-08T20:43:47.714Z,7.75
2022-11-08T20:46:16.886Z,7.25
2022-11-08T20:48:44.457Z,5.78
2022-11-08T20:51:15.971Z,5.70
2022-11-08T20:53:42.734Z,8.68
2022-11-08T20:56:12.532Z,5.85
2022-11-08T20:58:38.974Z,7.00
2022-11-08T21:01:07.366Z,6.13
2022-11-08T21:03:34.462Z,4.90
2022-11-08T21:06:03.858Z,7.13
2022-11-08T21:11:18.401Z,7.65
2022-11-08T21:13:46.467Z,6.32
2022-11-08T21:16:29.356Z,5.43
2022-11-08T21:18:57.485Z,9.60
2022-11-08T21:21:24.439Z,6.57
2022-11-08T21:23:51.587Z,5.65
2022-11-08T21:26:19.163Z,4.18
2022-11-08T21:28:46.347Z,4.70
2022-11-08T21:31:13.230Z,4.60
2022-11-08T21:33:39.748Z,6.78
2022-11-08T21:36:07.095Z,7.25
2022-11-08T21:38:39.394Z,10.77
2022-11-08T21:41:08.015Z,5.43
2022-11-08T21:43:41.340Z,6.88
2022-11-08T21:46:22.224Z,5.55
2022-11-08T21:48:54.429Z,4.87
2022-11-08T21:51:20.966Z,3.25
2022-11-08T21:53:54.919Z,5.40
2022-11-08T21:56:23.756Z,4.75
2022-11-08T21:58:50.204Z,4.50
2022-11-08T22:01:16.896Z,8.35
2022-11-08T22:03:43.507Z,4.97
2022-11-08T22:06:09.977Z,3.08
2022-11-08T22:08:36.436Z,4.22
2022-11-08T22:11:02.974Z,5.25
2022-11-08T22:13:29.383Z,5.18
2022-11-08T22:15:55.817Z,7.78
2022-11-08T22:18:42.959Z,4.82
2022-11-08T22:21:27.262Z,3.08
2022-11-08T22:23:53.801Z,5.50
2022-11-08T22:26:20.277Z,5.03
2022-11-08T22:28:46.683Z,6.07
2022-11-08T22:31:13.111Z,7.53
2022-11-08T22:33:39.488Z,4.50
2022-11-08T22:36:06.254Z,7.43
2022-11-08T22:38:32.659Z,5.25
2022-11-08T22:40:59.092Z,4.95
2022-11-08T22:43:25.569Z,4.70
2022-11-08T22:45:51.997Z,8.13
2022-11-08T22:48:18.776Z,3.30
2022-11-08T22:50:45.361Z,5.78
2022-11-08T22:53:11.931Z,4.70
2022-11-08T22:55:38.463Z,6.90
2022-11-08T22:58:04.922Z,4.45
2022-11-08T23:00:31.593Z,3.97
2022-11-08T23:02:57.988Z,5.80
2022-11-08T23:05:24.415Z,9.98
2022-11-08T23:07:50.844Z,4.32
2022-11-08T23:10:17.429Z,4.43
2022-11-08T23:13:02.241Z,6.47
2022-11-08T23:15:47.131Z,5.07
2022-11-08T23:18:13.595Z,3.92
2022-11-08T23:20:58.785Z,6.53
2022-11-08T23:23:43.655Z,5.05
2022-11-08T23:26:10.099Z,6.15
2022-11-08T23:28:54.918Z,5.80
2022-11-08T23:31:36.279Z,6.50
2022-11-08T23:34:04.070Z,4.32
2022-11-08T23:36:30.593Z,7.88
2022-11-08T23:38:58.021Z,5.22
2022-11-08T23:41:42.729Z,6.90
2022-11-08T23:44:24.464Z,5.15
2022-11-08T23:46:59.436Z,7.15
2022-11-08T23:49:26.884Z,5.40
2022-11-08T23:51:53.816Z,6.43
2022-11-08T23:54:20.443Z,6.55
2022-11-08T23:56:46.988Z,6.30
2022-11-08T23:59:15.424Z,5.68
